sensor_id;sensor_type;location;lat;lon;timestamp;P1;durP1;ratioP1;P2;durP2;ratioP2
60306;SDS011;46155;52.364;6.580;2022-12-07T04:00:57;13.37;;;12.33;;
60306;SDS011;46155;52.364;6.580;2022-12-07T04:03:22;16.27;;;13.90;;
60306;SDS011;46155;52.364;6.580;2022-12-07T04:05:48;14.73;;;12.83;;
60306;SDS011;46155;52.364;6.580;2022-12-07T04:08:13;17.20;;;13.73;;
60306;SDS011;46155;52.364;6.580;2022-12-07T04:10:39;14.37;;;13.27;;
60306;SDS011;46155;52.364;6.580;2022-12-07T04:13:04;13.73;;;12.47;;
60306;SDS011;46155;52.364;6.580;2022-12-07T04:15:29;14.23;;;13.07;;
60306;SDS011;46155;52.364;6.580;2022-12-07T04:17:55;17.70;;;12.87;;
60306;SDS011;46155;52.364;6.580;2022-12-07T04:20:20;14.47;;;12.97;;
60306;SDS011;46155;52.364;6.580;2022-12-07T04:22:46;13.83;;;12.70;;
60306;SDS011;46155;52.364;6.580;2022-12-07T04:25:11;13.93;;;12.87;;
60306;SDS011;46155;52.364;6.580;2022-12-07T04:27:37;12.30;;;11.17;;
60306;SDS011;46155;52.364;6.580;2022-12-07T04:30:02;11.47;;;10.43;;
60306;SDS011;46155;52.364;6.580;2022-12-07T04:32:28;15.27;;;13.70;;
60306;SDS011;46155;52.364;6.580;2022-12-07T04:34:53;13.63;;;12.40;;
60306;SDS011;46155;52.364;6.580;2022-12-07T04:37:19;13.73;;;12.77;;
60306;SDS011;46155;52.364;6.580;2022-12-07T04:39:44;14.70;;;13.50;;
60306;SDS011;46155;52.364;6.580;2022-12-07T04:42:10;12.93;;;11.77;;
60306;SDS011;46155;52.364;6.580;2022-12-07T04:44:37;13.80;;;13.00;;
60306;SDS011;46155;52.364;6.580;2022-12-07T04:47:03;14.67;;;13.00;;
60306;SDS011;46155;52.364;6.580;2022-12-07T04:49:28;16.40;;;14.67;;
60306;SDS011;46155;52.364;6.580;2022-12-07T04:51:53;14.53;;;13.13;;
60306;SDS011;46155;52.364;6.580;2022-12-07T04:54:19;13.93;;;13.10;;
60306;SDS011;46155;52.364;6.580;2022-12-07T04:56:45;15.63;;;14.13;;
60306;SDS011;46155;52.364;6.580;2022-12-07T04:59:11;15.40;;;14.10;;
60306;SDS011;46155;52.364;6.580;2022-12-07T05:01:38;15.10;;;14.10;;
60306;SDS011;46155;52.364;6.580;2022-12-07T05:04:03;15.70;;;14.37;;
60306;SDS011;46155;52.364;6.580;2022-12-07T05:06:29;14.60;;;13.30;;
60306;SDS011;46155;52.364;6.580;2022-12-07T05:08:54;15.13;;;13.70;;
60306;SDS011;46155;52.364;6.580;2022-12-07T05:11:20;14.70;;;13.90;;
60306;SDS011;46155;52.364;6.580;2022-12-07T05:14:04;13.40;;;12.37;;
60306;SDS011;46155;52.364;6.580;2022-12-07T05:16:32;15.17;;;14.20;;
60306;SDS011;46155;52.364;6.580;2022-12-07T05:18:58;15.17;;;12.10;;
60306;SDS011;46155;52.364;6.580;2022-12-07T05:21:23;13.67;;;12.67;;
60306;SDS011;46155;52.364;6.580;2022-12-07T05:23:49;13.63;;;12.73;;
60306;SDS011;46155;52.364;6.580;2022-12-07T05:26:15;13.93;;;12.90;;
60306;SDS011;46155;52.364;6.580;2022-12-07T05:28:40;12.63;;;11.60;;
60306;SDS011;46155;52.364;6.580;2022-12-07T05:31:06;11.80;;;11.00;;
60306;SDS011;46155;52.364;6.580;2022-12-07T05:33:31;12.47;;;11.87;;
60306;SDS011;46155;52.364;6.580;2022-12-07T05:35:56;13.80;;;12.37;;
60306;SDS011;46155;52.364;6.580;2022-12-07T05:38:22;11.33;;;10.33;;
60306;SDS011;46155;52.364;6.580;2022-12-07T05:40:47;11.97;;;10.80;;
60306;SDS011;46155;52.364;6.580;2022-12-07T05:43:12;12.07;;;11.07;;
60306;SDS011;46155;52.364;6.580;2022-12-07T05:45:38;11.87;;;10.97;;
60306;SDS011;46155;52.364;6.580;2022-12-07T05:48:03;12.43;;;11.27;;
60306;SDS011;46155;52.364;6.580;2022-12-07T05:50:28;14.10;;;11.30;;
60306;SDS011;46155;52.364;6.580;2022-12-07T05:52:54;12.77;;;11.97;;
60306;SDS011;46155;52.364;6.580;2022-12-07T05:55:19;14.03;;;12.87;;
60306;SDS011;46155;52.364;6.580;2022-12-07T05:57:44;14.90;;;13.87;;
60306;SDS011;46155;52.364;6.580;2022-12-07T06:00:30;15.53;;;14.37;;
60306;SDS011;46155;52.364;6.580;2022-12-07T06:02:55;14.97;;;13.93;;
60306;SDS011;46155;52.364;6.580;2022-12-07T06:05:20;14.03;;;13.33;;
60306;SDS011;46155;52.364;6.580;2022-12-07T06:07:46;17.47;;;15.47;;
60306;SDS011;46155;52.364;6.580;2022-12-07T06:10:11;19.03;;;14.87;;
60306;SDS011;46155;52.364;6.580;2022-12-07T06:12:36;16.27;;;14.63;;
60306;SDS011;46155;52.364;6.580;2022-12-07T06:15:04;13.17;;;12.53;;
60306;SDS011;46155;52.364;6.580;2022-12-07T06:17:30;15.37;;;14.23;;
60306;SDS011;46155;52.364;6.580;2022-12-07T06:19:55;13.67;;;13.03;;
60306;SDS011;46155;52.364;6.580;2022-12-07T06:22:21;14.90;;;13.27;;
60306;SDS011;46155;52.364;6.580;2022-12-07T06:24:46;14.43;;;13.30;;
60306;SDS011;46155;52.364;6.580;2022-12-07T06:27:12;16.80;;;13.57;;
60306;SDS011;46155;52.364;6.580;2022-12-07T06:29:38;15.00;;;13.67;;
60306;SDS011;46155;52.364;6.580;2022-12-07T06:32:03;14.53;;;13.63;;
60306;SDS011;46155;52.364;6.580;2022-12-07T06:34:29;17.13;;;15.83;;
60306;SDS011;46155;52.364;6.580;2022-12-07T06:36:55;12.97;;;12.27;;
60306;SDS011;46155;52.364;6.580;2022-12-07T06:39:21;14.77;;;12.77;;
60306;SDS011;46155;52.364;6.580;2022-12-07T06:41:48;17.20;;;13.07;;
60306;SDS011;46155;52.364;6.580;2022-12-07T06:44:14;14.70;;;13.80;;
60306;SDS011;46155;52.364;6.580;2022-12-07T06:46:40;12.53;;;11.37;;
60306;SDS011;46155;52.364;6.580;2022-12-07T06:49:05;12.60;;;11.80;;
60306;SDS011;46155;52.364;6.580;2022-12-07T06:51:31;12.90;;;12.10;;
60306;SDS011;46155;52.364;6.580;2022-12-07T06:53:58;12.60;;;11.63;;
60306;SDS011;46155;52.364;6.580;2022-12-07T06:56:23;13.83;;;12.83;;
60306;SDS011;46155;52.364;6.580;2022-12-07T06:58:49;14.37;;;13.27;;
60306;SDS011;46155;52.364;6.580;2022-12-07T07:01:15;13.17;;;12.17;;
60306;SDS011;46155;52.364;6.580;2022-12-07T07:03:42;21.47;;;13.97;;
60306;SDS011;46155;52.364;6.580;2022-12-07T07:06:08;15.43;;;14.23;;
60306;SDS011;46155;52.364;6.580;2022-12-07T07:08:35;14.80;;;13.67;;
60306;SDS011;46155;52.364;6.580;2022-12-07T07:11:01;14.17;;;13.20;;
60306;SDS011;46155;52.364;6.580;2022-12-07T07:13:26;15.13;;;14.13;;
60306;SDS011;46155;52.364;6.580;2022-12-07T07:15:52;15.13;;;14.00;;
60306;SDS011;46155;52.364;6.580;2022-12-07T07:18:17;14.20;;;12.37;;
60306;SDS011;46155;52.364;6.580;2022-12-07T07:20:43;15.07;;;13.50;;
60306;SDS011;46155;52.364;6.580;2022-12-07T07:23:08;17.00;;;15.33;;
60306;SDS011;46155;52.364;6.580;2022-12-07T07:25:34;14.90;;;13.87;;
60306;SDS011;46155;52.364;6.580;2022-12-07T07:27:59;15.40;;;14.40;;
60306;SDS011;46155;52.364;6.580;2022-12-07T07:30:25;15.33;;;13.87;;
60306;SDS011;46155;52.364;6.580;2022-12-07T07:32:51;16.50;;;14.87;;
60306;SDS011;46155;52.364;6.580;2022-12-07T07:35:16;16.77;;;15.20;;
60306;SDS011;46155;52.364;6.580;2022-12-07T07:37:42;20.43;;;18.47;;
60306;SDS011;46155;52.364;6.580;2022-12-07T07:40:08;19.27;;;17.63;;
60306;SDS011;46155;52.364;6.580;2022-12-07T07:42:34;12.60;;;11.53;;
60306;SDS011;46155;52.364;6.580;2022-12-07T07:44:59;12.17;;;11.07;;
60306;SDS011;46155;52.364;6.580;2022-12-07T07:47:24;19.03;;;10.17;;
60306;SDS011;46155;52.364;6.580;2022-12-07T07:49:49;9.07;;;8.27;;
60306;SDS011;46155;52.364;6.580;2022-12-07T07:52:15;10.10;;;9.50;;
60306;SDS011;46155;52.364;6.580;2022-12-07T07:54:40;9.67;;;8.70;;
60306;SDS011;46155;52.364;6.580;2022-12-07T07:57:05;14.07;;;8.53;;
60306;SDS011;46155;52.364;6.580;2022-12-07T07:59:31;12.93;;;9.73;;
60306;SDS011;46155;52.364;6.580;2022-12-07T08:01:56;9.57;;;8.77;;
60306;SDS011;46155;52.364;6.580;2022-12-07T08:04:21;9.50;;;8.47;;
60306;SDS011;46155;52.364;6.580;2022-12-07T08:06:46;14.53;;;8.03;;
60306;SDS011;46155;52.364;6.580;2022-12-07T08:09:12;17.10;;;8.97;;
60306;SDS011;46155;52.364;6.580;2022-12-07T08:11:37;9.57;;;8.27;;
60306;SDS011;46155;52.364;6.580;2022-12-07T08:14:02;10.03;;;9.00;;
60306;SDS011;46155;52.364;6.580;2022-12-07T08:16:28;10.07;;;8.30;;
60306;SDS011;46155;52.364;6.580;2022-12-07T08:18:53;16.77;;;10.17;;
60306;SDS011;46155;52.364;6.580;2022-12-07T08:21:19;10.87;;;9.90;;
60306;SDS011;46155;52.364;6.580;2022-12-07T08:23:45;9.60;;;8.63;;
60306;SDS011;46155;52.364;6.580;2022-12-07T08:26:11;13.63;;;9.23;;
60306;SDS011;46155;52.364;6.580;2022-12-07T08:28:38;9.50;;;8.77;;
60306;SDS011;46155;52.364;6.580;2022-12-07T08:31:05;10.10;;;9.47;;
60306;SDS011;46155;52.364;6.580;2022-12-07T08:33:33;10.40;;;9.13;;
60306;SDS011;46155;52.364;6.580;2022-12-07T08:36:03;9.60;;;8.87;;
60306;SDS011;46155;52.364;6.580;2022-12-07T08:38:29;9.90;;;9.03;;
60306;SDS011;46155;52.364;6.580;2022-12-07T08:40:55;10.80;;;9.87;;
60306;SDS011;46155;52.364;6.580;2022-12-07T08:43:22;10.23;;;9.43;;
60306;SDS011;46155;52.364;6.580;2022-12-07T08:45:48;8.97;;;8.37;;
60306;SDS011;46155;52.364;6.580;2022-12-07T08:48:24;9.83;;;8.87;;
60306;SDS011;46155;52.364;6.580;2022-12-07T08:50:50;13.47;;;9.60;;
60306;SDS011;46155;52.364;6.580;2022-12-07T08:53:16;9.83;;;8.90;;
60306;SDS011;46155;52.364;6.580;2022-12-07T08:55:42;9.23;;;7.90;;
60306;SDS011;46155;52.364;6.580;2022-12-07T08:58:09;9.03;;;8.50;;
60306;SDS011;46155;52.364;6.580;2022-12-07T09:00:35;8.37;;;7.63;;
60306;SDS011;46155;52.364;6.580;2022-12-07T09:03:00;8.67;;;7.90;;
60306;SDS011;46155;52.364;6.580;2022-12-07T09:05:26;9.33;;;8.50;;
60306;SDS011;46155;52.364;6.580;2022-12-07T09:07:52;9.83;;;8.90;;
60306;SDS011;46155;52.364;6.580;2022-12-07T09:10:22;9.70;;;8.93;;
60306;SDS011;46155;52.364;6.580;2022-12-07T09:12:48;9.23;;;8.60;;
60306;SDS011;46155;52.364;6.580;2022-12-07T09:15:13;12.77;;;10.03;;
60306;SDS011;46155;52.364;6.580;2022-12-07T09:17:39;10.00;;;9.00;;
60306;SDS011;46155;52.364;6.580;2022-12-07T09:20:04;10.30;;;9.47;;
60306;SDS011;46155;52.364;6.580;2022-12-07T09:22:31;11.77;;;10.77;;
60306;SDS011;46155;52.364;6.580;2022-12-07T09:24:59;8.57;;;8.17;;
60306;SDS011;46155;52.364;6.580;2022-12-07T09:27:25;9.30;;;8.50;;
60306;SDS011;46155;52.364;6.580;2022-12-07T09:29:51;10.40;;;8.80;;
60306;SDS011;46155;52.364;6.580;2022-12-07T09:32:17;9.90;;;9.00;;
60306;SDS011;46155;52.364;6.580;2022-12-07T09:34:42;13.73;;;10.53;;
60306;SDS011;46155;52.364;6.580;2022-12-07T09:37:07;10.60;;;8.70;;
60306;SDS011;46155;52.364;6.580;2022-12-07T09:39:33;9.90;;;9.20;;
60306;SDS011;46155;52.364;6.580;2022-12-07T09:41:59;11.27;;;8.57;;
60306;SDS011;46155;52.364;6.580;2022-12-07T09:44:27;12.23;;;7.50;;
60306;SDS011;46155;52.364;6.580;2022-12-07T09:46:53;8.30;;;7.70;;
60306;SDS011;46155;52.364;6.580;2022-12-07T09:49:20;9.90;;;9.17;;
60306;SDS011;46155;52.364;6.580;2022-12-07T09:51:47;8.83;;;8.20;;
60306;SDS011;46155;52.364;6.580;2022-12-07T09:54:24;14.20;;;6.70;;
60306;SDS011;46155;52.364;6.580;2022-12-07T09:56:49;8.30;;;7.53;;
60306;SDS011;46155;52.364;6.580;2022-12-07T09:59:17;9.07;;;7.33;;
60306;SDS011;46155;52.364;6.580;2022-12-07T10:01:44;8.57;;;7.87;;
60306;SDS011;46155;52.364;6.580;2022-12-07T10:06:45;8.47;;;7.97;;
60306;SDS011;46155;52.364;6.580;2022-12-07T10:09:13;7.93;;;7.43;;
60306;SDS011;46155;52.364;6.580;2022-12-07T10:14:34;12.27;;;7.63;;
60306;SDS011;46155;52.364;6.580;2022-12-07T10:17:01;7.53;;;6.83;;
60306;SDS011;46155;52.364;6.580;2022-12-07T10:19:29;7.57;;;6.87;;
60306;SDS011;46155;52.364;6.580;2022-12-07T10:24:50;8.83;;;7.30;;
60306;SDS011;46155;52.364;6.580;2022-12-07T10:27:30;6.77;;;6.37;;
60306;SDS011;46155;52.364;6.580;2022-12-07T10:29:56;6.77;;;6.17;;
60306;SDS011;46155;52.364;6.580;2022-12-07T10:37:41;7.90;;;6.23;;
60306;SDS011;46155;52.364;6.580;2022-12-07T10:40:24;7.70;;;5.70;;
60306;SDS011;46155;52.364;6.580;2022-12-07T10:45:27;7.83;;;6.47;;
60306;SDS011;46155;52.364;6.580;2022-12-07T10:47:59;6.00;;;5.63;;
60306;SDS011;46155;52.364;6.580;2022-12-07T10:53:18;6.77;;;6.13;;
60306;SDS011;46155;52.364;6.580;2022-12-07T11:07:14;7.53;;;5.43;;
60306;SDS011;46155;52.364;6.580;2022-12-07T11:09:57;5.50;;;5.13;;
60306;SDS011;46155;52.364;6.580;2022-12-07T11:15:42;9.57;;;5.40;;
60306;SDS011;46155;52.364;6.580;2022-12-07T11:26:25;6.07;;;5.43;;
60306;SDS011;46155;52.364;6.580;2022-12-07T11:37:17;13.90;;;6.33;;
60306;SDS011;46155;52.364;6.580;2022-12-07T11:42:27;5.93;;;5.40;;
60306;SDS011;46155;52.364;6.580;2022-12-07T11:45:03;8.13;;;5.83;;
60306;SDS011;46155;52.364;6.580;2022-12-07T11:50:23;8.67;;;5.97;;
60306;SDS011;46155;52.364;6.580;2022-12-07T11:53:02;9.50;;;5.50;;
60306;SDS011;46155;52.364;6.580;2022-12-07T11:58:25;16.00;;;5.97;;
60306;SDS011;46155;52.364;6.580;2022-12-07T12:01:22;7.53;;;5.30;;
60306;SDS011;46155;52.364;6.580;2022-12-07T12:03:50;9.03;;;5.60;;
60306;SDS011;46155;52.364;6.580;2022-12-07T12:06:17;6.23;;;5.00;;
60306;SDS011;46155;52.364;6.580;2022-12-07T12:11:43;15.73;;;5.37;;
60306;SDS011;46155;52.364;6.580;2022-12-07T12:22:42;7.93;;;5.63;;
60306;SDS011;46155;52.364;6.580;2022-12-07T12:25:23;8.27;;;5.93;;
60306;SDS011;46155;52.364;6.580;2022-12-07T12:27:53;6.23;;;5.63;;
60306;SDS011;46155;52.364;6.580;2022-12-07T12:33:30;10.77;;;5.63;;
60306;SDS011;46155;52.364;6.580;2022-12-07T12:44:03;10.90;;;5.90;;
60306;SDS011;46155;52.364;6.580;2022-12-07T12:46:55;9.80;;;5.53;;
60306;SDS011;46155;52.364;6.580;2022-12-07T12:51:56;8.47;;;5.20;;
60306;SDS011;46155;52.364;6.580;2022-12-07T12:54:24;9.63;;;5.33;;
60306;SDS011;46155;52.364;6.580;2022-12-07T12:59:42;5.60;;;5.10;;
60306;SDS011;46155;52.364;6.580;2022-12-07T13:02:20;13.43;;;5.10;;
60306;SDS011;46155;52.364;6.580;2022-12-07T13:10:25;10.63;;;5.00;;
60306;SDS011;46155;52.364;6.580;2022-12-07T13:23:32;6.10;;;4.53;;
60306;SDS011;46155;52.364;6.580;2022-12-07T13:26:04;6.20;;;4.60;;
60306;SDS011;46155;52.364;6.580;2022-12-07T13:28:38;4.47;;;4.23;;
60306;SDS011;46155;52.364;6.580;2022-12-07T13:33:44;12.17;;;5.20;;
60306;SDS011;46155;52.364;6.580;2022-12-07T13:36:30;5.30;;;4.93;;
60306;SDS011;46155;52.364;6.580;2022-12-07T13:39:10;5.53;;;5.13;;
60306;SDS011;46155;52.364;6.580;2022-12-07T13:41:43;6.43;;;4.90;;
60306;SDS011;46155;52.364;6.580;2022-12-07T13:44:09;5.43;;;4.83;;
60306;SDS011;46155;52.364;6.580;2022-12-07T13:49:47;12.37;;;5.10;;
60306;SDS011;46155;52.364;6.580;2022-12-07T13:54:59;6.60;;;4.83;;
60306;SDS011;46155;52.364;6.580;2022-12-07T13:57:27;13.63;;;5.37;;
60306;SDS011;46155;52.364;6.580;2022-12-07T13:59:55;8.13;;;5.83;;
60306;SDS011;46155;52.364;6.580;2022-12-07T14:04:52;7.40;;;5.07;;
60306;SDS011;46155;52.364;6.580;2022-12-07T14:07:31;9.20;;;5.20;;
60306;SDS011;46155;52.364;6.580;2022-12-07T14:10:00;4.77;;;4.50;;
60306;SDS011;46155;52.364;6.580;2022-12-07T14:12:28;5.53;;;5.03;;
60306;SDS011;46155;52.364;6.580;2022-12-07T14:14:55;8.10;;;5.33;;
60306;SDS011;46155;52.364;6.580;2022-12-07T14:17:23;17.97;;;5.77;;
60306;SDS011;46155;52.364;6.580;2022-12-07T14:19:59;6.67;;;5.60;;
60306;SDS011;46155;52.364;6.580;2022-12-07T14:22:27;9.47;;;6.10;;
60306;SDS011;46155;52.364;6.580;2022-12-07T14:27:38;7.43;;;5.23;;
60306;SDS011;46155;52.364;6.580;2022-12-07T14:30:05;9.67;;;5.40;;
60306;SDS011;46155;52.364;6.580;2022-12-07T14:32:31;6.23;;;5.70;;
60306;SDS011;46155;52.364;6.580;2022-12-07T14:37:36;6.87;;;5.10;;
60306;SDS011;46155;52.364;6.580;2022-12-07T14:40:02;8.10;;;5.23;;
60306;SDS011;46155;52.364;6.580;2022-12-07T14:42:28;17.03;;;5.40;;
60306;SDS011;46155;52.364;6.580;2022-12-07T14:44:56;5.03;;;4.73;;
60306;SDS011;46155;52.364;6.580;2022-12-07T14:47:22;10.03;;;5.53;;
60306;SDS011;46155;52.364;6.580;2022-12-07T14:49:48;10.30;;;5.33;;
60306;SDS011;46155;52.364;6.580;2022-12-07T14:52:18;10.40;;;5.23;;
60306;SDS011;46155;52.364;6.580;2022-12-07T14:54:46;5.83;;;5.33;;
60306;SDS011;46155;52.364;6.580;2022-12-07T14:57:11;4.90;;;4.50;;
60306;SDS011;46155;52.364;6.580;2022-12-07T14:59:36;7.60;;;4.50;;
60306;SDS011;46155;52.364;6.580;2022-12-07T15:02:02;12.87;;;4.73;;
60306;SDS011;46155;52.364;6.580;2022-12-07T15:04:27;6.90;;;5.23;;
60306;SDS011;46155;52.364;6.580;2022-12-07T15:07:00;7.77;;;5.80;;
60306;SDS011;46155;52.364;6.580;2022-12-07T15:09:27;5.73;;;5.10;;
60306;SDS011;46155;52.364;6.580;2022-12-07T15:11:53;10.57;;;5.60;;
60306;SDS011;46155;52.364;6.580;2022-12-07T15:14:18;7.10;;;5.90;;
60306;SDS011;46155;52.364;6.580;2022-12-07T15:16:44;5.77;;;5.37;;
60306;SDS011;46155;52.364;6.580;2022-12-07T15:19:10;7.17;;;6.40;;
60306;SDS011;46155;52.364;6.580;2022-12-07T15:21:39;6.20;;;5.87;;
60306;SDS011;46155;52.364;6.580;2022-12-07T15:24:05;10.27;;;6.23;;
60306;SDS011;46155;52.364;6.580;2022-12-07T15:26:30;10.43;;;7.00;;
60306;SDS011;46155;52.364;6.580;2022-12-07T15:28:56;6.80;;;6.30;;
60306;SDS011;46155;52.364;6.580;2022-12-07T15:31:21;6.97;;;6.37;;
60306;SDS011;46155;52.364;6.580;2022-12-07T15:33:47;7.43;;;5.93;;
60306;SDS011;46155;52.364;6.580;2022-12-07T15:36:18;9.37;;;5.50;;
60306;SDS011;46155;52.364;6.580;2022-12-07T15:38:46;6.80;;;6.33;;
60306;SDS011;46155;52.364;6.580;2022-12-07T15:41:11;12.07;;;5.67;;
60306;SDS011;46155;52.364;6.580;2022-12-07T15:43:37;6.43;;;5.87;;
60306;SDS011;46155;52.364;6.580;2022-12-07T15:46:34;6.10;;;5.70;;
60306;SDS011;46155;52.364;6.580;2022-12-07T15:49:04;6.83;;;6.27;;
60306;SDS011;46155;52.364;6.580;2022-12-07T15:51:34;6.57;;;6.17;;
60306;SDS011;46155;52.364;6.580;2022-12-07T15:53:59;6.37;;;5.83;;
60306;SDS011;46155;52.364;6.580;2022-12-07T15:56:24;5.93;;;5.57;;
60306;SDS011;46155;52.364;6.580;2022-12-07T15:58:50;6.30;;;5.70;;
60306;SDS011;46155;52.364;6.580;2022-12-07T16:01:16;7.97;;;5.80;;
60306;SDS011;46155;52.364;6.580;2022-12-07T16:03:42;11.23;;;7.50;;
60306;SDS011;46155;52.364;6.580;2022-12-07T16:06:09;9.90;;;6.10;;
60306;SDS011;46155;52.364;6.580;2022-12-07T16:08:34;7.10;;;6.40;;
60306;SDS011;46155;52.364;6.580;2022-12-07T16:10:59;6.23;;;5.83;;
60306;SDS011;46155;52.364;6.580;2022-12-07T16:13:29;8.07;;;6.47;;
60306;SDS011;46155;52.364;6.580;2022-12-07T16:15:54;7.80;;;7.10;;
60306;SDS011;46155;52.364;6.580;2022-12-07T16:18:19;15.53;;;7.73;;
60306;SDS011;46155;52.364;6.580;2022-12-07T16:20:47;15.47;;;7.00;;
60306;SDS011;46155;52.364;6.580;2022-12-07T16:23:13;10.17;;;5.93;;
60306;SDS011;46155;52.364;6.580;2022-12-07T16:25:38;6.90;;;6.07;;
60306;SDS011;46155;52.364;6.580;2022-12-07T16:28:04;7.80;;;7.07;;
60306;SDS011;46155;52.364;6.580;2022-12-07T16:30:29;6.90;;;6.27;;
60306;SDS011;46155;52.364;6.580;2022-12-07T16:32:54;7.40;;;6.93;;
60306;SDS011;46155;52.364;6.580;2022-12-07T16:35:19;7.70;;;6.80;;
60306;SDS011;46155;52.364;6.580;2022-12-07T16:37:45;9.10;;;8.17;;
60306;SDS011;46155;52.364;6.580;2022-12-07T16:40:10;7.90;;;7.20;;
60306;SDS011;46155;52.364;6.580;2022-12-07T16:42:36;8.43;;;7.60;;
60306;SDS011;46155;52.364;6.580;2022-12-07T16:45:02;9.47;;;8.33;;
60306;SDS011;46155;52.364;6.580;2022-12-07T16:47:27;7.47;;;6.87;;
60306;SDS011;46155;52.364;6.580;2022-12-07T16:49:53;7.87;;;7.07;;
60306;SDS011;46155;52.364;6.580;2022-12-07T16:52:19;8.20;;;7.40;;
60306;SDS011;46155;52.364;6.580;2022-12-07T16:54:45;7.57;;;7.03;;
60306;SDS011;46155;52.364;6.580;2022-12-07T16:57:11;10.00;;;7.73;;
60306;SDS011;46155;52.364;6.580;2022-12-07T16:59:36;12.47;;;8.37;;
60306;SDS011;46155;52.364;6.580;2022-12-07T17:02:01;9.43;;;8.33;;
60306;SDS011;46155;52.364;6.580;2022-12-07T17:04:28;11.70;;;8.07;;
60306;SDS011;46155;52.364;6.580;2022-12-07T17:06:53;8.60;;;8.00;;
60306;SDS011;46155;52.364;6.580;2022-12-07T17:09:19;8.93;;;8.13;;
60306;SDS011;46155;52.364;6.580;2022-12-07T17:11:44;19.37;;;8.77;;
60306;SDS011;46155;52.364;6.580;2022-12-07T17:14:10;8.47;;;7.00;;
60306;SDS011;46155;52.364;6.580;2022-12-07T17:16:54;18.83;;;7.87;;
60306;SDS011;46155;52.364;6.580;2022-12-07T17:19:21;8.60;;;6.87;;
60306;SDS011;46155;52.364;6.580;2022-12-07T17:21:46;8.87;;;7.60;;
60306;SDS011;46155;52.364;6.580;2022-12-07T17:24:13;11.13;;;8.13;;
60306;SDS011;46155;52.364;6.580;2022-12-07T17:26:40;8.13;;;7.53;;
60306;SDS011;46155;52.364;6.580;2022-12-07T17:29:07;10.03;;;8.67;;
60306;SDS011;46155;52.364;6.580;2022-12-07T17:31:33;8.33;;;7.37;;
60306;SDS011;46155;52.364;6.580;2022-12-07T17:34:00;8.33;;;7.90;;
60306;SDS011;46155;52.364;6.580;2022-12-07T17:36:27;11.97;;;7.50;;
60306;SDS011;46155;52.364;6.580;2022-12-07T17:38:54;10.27;;;9.57;;
60306;SDS011;46155;52.364;6.580;2022-12-07T17:41:21;9.73;;;9.00;;
60306;SDS011;46155;52.364;6.580;2022-12-07T17:44:11;9.47;;;8.67;;
60306;SDS011;46155;52.364;6.580;2022-12-07T17:46:38;11.03;;;8.73;;
60306;SDS011;46155;52.364;6.580;2022-12-07T17:49:04;11.00;;;9.27;;
60306;SDS011;46155;52.364;6.580;2022-12-07T17:51:30;9.37;;;8.83;;
60306;SDS011;46155;52.364;6.580;2022-12-07T17:54:14;9.23;;;8.37;;
60306;SDS011;46155;52.364;6.580;2022-12-07T17:56:39;8.63;;;7.83;;
60306;SDS011;46155;52.364;6.580;2022-12-07T17:59:05;12.70;;;7.97;;
60306;SDS011;46155;52.364;6.580;2022-12-07T18:01:31;18.53;;;8.80;;
60306;SDS011;46155;52.364;6.580;2022-12-07T18:03:57;11.30;;;8.30;;
60306;SDS011;46155;52.364;6.580;2022-12-07T18:06:22;9.30;;;8.60;;
60306;SDS011;46155;52.364;6.580;2022-12-07T18:08:48;15.13;;;8.43;;
60306;SDS011;46155;52.364;6.580;2022-12-07T18:11:13;9.10;;;8.40;;
60306;SDS011;46155;52.364;6.580;2022-12-07T18:13:39;10.17;;;9.37;;
60306;SDS011;46155;52.364;6.580;2022-12-07T18:16:05;8.70;;;7.70;;
60306;SDS011;46155;52.364;6.580;2022-12-07T18:18:32;12.93;;;8.93;;
60306;SDS011;46155;52.364;6.580;2022-12-07T18:21:01;11.60;;;10.53;;
60306;SDS011;46155;52.364;6.580;2022-12-07T18:23:28;12.10;;;11.10;;
60306;SDS011;46155;52.364;6.580;2022-12-07T18:25:53;14.90;;;8.37;;
60306;SDS011;46155;52.364;6.580;2022-12-07T18:28:19;9.90;;;8.47;;
60306;SDS011;46155;52.364;6.580;2022-12-07T18:30:44;10.07;;;9.20;;
60306;SDS011;46155;52.364;6.580;2022-12-07T18:33:18;9.97;;;9.27;;
60306;SDS011;46155;52.364;6.580;2022-12-07T18:35:45;10.83;;;10.00;;
60306;SDS011;46155;52.364;6.580;2022-12-07T18:38:12;12.30;;;10.93;;
60306;SDS011;46155;52.364;6.580;2022-12-07T18:40:41;11.87;;;10.83;;
60306;SDS011;46155;52.364;6.580;2022-12-07T18:43:08;11.47;;;10.77;;
60306;SDS011;46155;52.364;6.580;2022-12-07T18:45:38;10.80;;;9.80;;
60306;SDS011;46155;52.364;6.580;2022-12-07T18:48:05;10.43;;;9.73;;
60306;SDS011;46155;52.364;6.580;2022-12-07T18:50:32;10.90;;;9.80;;
60306;SDS011;46155;52.364;6.580;2022-12-07T18:52:58;10.00;;;9.23;;
60306;SDS011;46155;52.364;6.580;2022-12-07T18:55:25;10.07;;;9.47;;
60306;SDS011;46155;52.364;6.580;2022-12-07T18:57:52;10.90;;;9.90;;
60306;SDS011;46155;52.364;6.580;2022-12-07T19:00:18;9.90;;;8.90;;
60306;SDS011;46155;52.364;6.580;2022-12-07T19:02:44;10.23;;;9.07;;
60306;SDS011;46155;52.364;6.580;2022-12-07T19:05:09;12.03;;;10.83;;
60306;SDS011;46155;52.364;6.580;2022-12-07T19:07:34;12.23;;;11.23;;
60306;SDS011;46155;52.364;6.580;2022-12-07T19:10:00;12.37;;;10.80;;
60306;SDS011;46155;52.364;6.580;2022-12-07T19:12:25;12.07;;;11.17;;
60306;SDS011;46155;52.364;6.580;2022-12-07T19:14:51;13.77;;;12.73;;
60306;SDS011;46155;52.364;6.580;2022-12-07T19:17:16;10.23;;;9.63;;
60306;SDS011;46155;52.364;6.580;2022-12-07T19:19:42;12.67;;;11.67;;
60306;SDS011;46155;52.364;6.580;2022-12-07T19:22:10;13.97;;;13.17;;
60306;SDS011;46155;52.364;6.580;2022-12-07T19:24:37;14.50;;;13.47;;
60306;SDS011;46155;52.364;6.580;2022-12-07T19:27:05;14.13;;;12.80;;
60306;SDS011;46155;52.364;6.580;2022-12-07T19:29:32;13.37;;;11.77;;
60306;SDS011;46155;52.364;6.580;2022-12-07T19:31:59;11.83;;;10.90;;
60306;SDS011;46155;52.364;6.580;2022-12-07T19:34:25;13.03;;;11.77;;
60306;SDS011;46155;52.364;6.580;2022-12-07T19:36:51;12.90;;;12.10;;
60306;SDS011;46155;52.364;6.580;2022-12-07T19:39:16;13.70;;;12.20;;
60306;SDS011;46155;52.364;6.580;2022-12-07T19:41:42;11.60;;;10.97;;
60306;SDS011;46155;52.364;6.580;2022-12-07T19:44:10;13.30;;;12.50;;
60306;SDS011;46155;52.364;6.580;2022-12-07T19:46:37;17.33;;;15.63;;
60306;SDS011;46155;52.364;6.580;2022-12-07T19:49:03;14.50;;;13.07;;
60306;SDS011;46155;52.364;6.580;2022-12-07T19:51:29;15.40;;;14.30;;
60306;SDS011;46155;52.364;6.580;2022-12-07T19:53:56;14.30;;;13.40;;
60306;SDS011;46155;52.364;6.580;2022-12-07T19:56:22;12.53;;;11.83;;
60306;SDS011;46155;52.364;6.580;2022-12-07T19:58:48;16.73;;;14.97;;
60306;SDS011;46155;52.364;6.580;2022-12-07T20:01:13;14.87;;;13.40;;
60306;SDS011;46155;52.364;6.580;2022-12-07T20:03:39;13.90;;;12.87;;
60306;SDS011;46155;52.364;6.580;2022-12-07T20:06:08;11.27;;;10.60;;
60306;SDS011;46155;52.364;6.580;2022-12-07T20:08:34;21.20;;;15.20;;
60306;SDS011;46155;52.364;6.580;2022-12-07T20:11:00;13.60;;;12.27;;
60306;SDS011;46155;52.364;6.580;2022-12-07T20:13:45;15.57;;;14.00;;
60306;SDS011;46155;52.364;6.580;2022-12-07T20:16:10;13.90;;;12.63;;
60306;SDS011;46155;52.364;6.580;2022-12-07T20:18:36;13.70;;;12.47;;
60306;SDS011;46155;52.364;6.580;2022-12-07T20:21:01;13.60;;;12.47;;
60306;SDS011;46155;52.364;6.580;2022-12-07T20:23:27;13.67;;;12.43;;
60306;SDS011;46155;52.364;6.580;2022-12-07T20:25:53;13.83;;;12.97;;
60306;SDS011;46155;52.364;6.580;2022-12-07T20:28:18;15.10;;;13.67;;
60306;SDS011;46155;52.364;6.580;2022-12-07T20:30:47;14.57;;;13.53;;
60306;SDS011;46155;52.364;6.580;2022-12-07T20:33:14;15.60;;;14.13;;
60306;SDS011;46155;52.364;6.580;2022-12-07T20:35:40;16.60;;;15.33;;